Time;durP1;ratioP1;P1;durP2;ratioP2;P2;SDS_P1;SDS_P2;PMS_P1;PMS_P2;Temp;Humidity;BMP_temperature;BMP_pressure;BME280_temperature;BME280_humidity;BME280_pressure;Samples;Min_cycle;Max_cycle;Signal;HPM_P1;HPM_P2
2023/06/05 00:00:38;;;;;;;2.57;1.97;;;25.10;40.20;;;;;;4997371;28;20545;-78
2023/06/05 00:03:07;;;;;;;3.17;1.90;;;25.10;40.30;;;;;;5001487;28;20542;-78
2023/06/05 00:05:36;;;;;;;2.00;1.90;;;25.10;40.30;;;;;;4995230;28;20477;-78
2023/06/05 00:08:05;;;;;;;2.10;2.00;;;25.00;40.30;;;;;;4997635;28;20420;-78
2023/06/05 00:10:33;;;;;;;2.07;1.90;;;25.00;40.30;;;;;;4993198;28;20441;-78
2023/06/05 00:13:01;;;;;;;2.73;2.17;;;25.00;40.40;;;;;;5002447;28;20449;-78
2023/06/05 00:15:31;;;;;;;3.10;1.70;;;25.00;40.40;;;;;;5001423;28;20469;-78
2023/06/05 00:17:59;;;;;;;2.47;2.27;;;24.90;40.30;;;;;;5000492;28;20515;-78
2023/06/05 00:20:28;;;;;;;4.43;2.37;;;24.90;40.40;;;;;;5001403;28;20447;-78
2023/06/05 00:22:56;;;;;;;2.10;2.00;;;24.90;40.50;;;;;;4993552;28;20461;-78
2023/06/05 00:25:25;;;;;;;2.30;2.20;;;24.90;40.50;;;;;;5000260;28;21058;-78
2023/06/05 00:27:54;;;;;;;3.13;2.37;;;24.80;40.50;;;;;;5003650;28;20478;-78
2023/06/05 00:30:22;;;;;;;2.60;2.20;;;24.80;40.60;;;;;;5002489;28;20844;-78
2023/06/05 00:32:50;;;;;;;4.40;2.00;;;24.70;40.50;;;;;;4999679;28;20449;-78
2023/06/05 00:35:18;;;;;;;5.93;2.07;;;24.80;40.60;;;;;;5004235;28;20473;-78
2023/06/05 00:37:46;;;;;;;1.80;1.70;;;24.80;40.70;;;;;;4998961;28;20424;-78
2023/06/05 00:40:15;;;;;;;2.43;2.20;;;24.70;40.50;;;;;;4989990;28;20445;-78
2023/06/05 00:42:45;;;;;;;2.30;2.10;;;24.70;40.60;;;;;;5000267;28;20449;-78
2023/06/05 00:45:13;;;;;;;2.00;1.90;;;24.60;40.70;;;;;;4999050;28;20457;-78
2023/06/05 00:47:41;;;;;;;2.40;2.20;;;24.60;40.60;;;;;;5003053;28;20424;-78
2023/06/05 00:50:11;;;;;;;3.00;2.10;;;24.60;40.60;;;;;;4992630;28;20413;-78
2023/06/05 00:52:40;;;;;;;4.23;2.50;;;24.60;40.60;;;;;;5001254;28;20486;-78
2023/06/05 00:55:09;;;;;;;2.30;2.20;;;24.50;40.70;;;;;;5001379;28;20448;-78
2023/06/05 00:57:38;;;;;;;2.20;2.00;;;24.50;40.80;;;;;;5003066;28;20446;-78
2023/06/05 01:00:12;;;;;;;3.27;2.20;;;24.50;40.80;;;;;;5003499;28;20498;-78
2023/06/05 01:02:40;;;;;;;2.40;2.30;;;24.50;40.70;;;;;;4996217;28;20524;-78
2023/06/05 01:05:09;;;;;;;3.13;2.00;;;24.50;40.90;;;;;;4999135;28;20444;-77
2023/06/05 01:07:38;;;;;;;2.50;1.80;;;24.40;40.90;;;;;;5005124;28;20446;-78
2023/06/05 01:10:08;;;;;;;3.27;2.10;;;24.40;40.90;;;;;;4994864;28;20473;-78
2023/06/05 01:12:39;;;;;;;2.73;2.03;;;24.30;40.80;;;;;;5003785;28;20431;-78
2023/06/05 01:15:09;;;;;;;7.23;1.93;;;24.30;40.80;;;;;;5005011;28;20465;-77
2023/06/05 01:17:37;;;;;;;2.43;2.20;;;24.30;40.80;;;;;;5000504;28;20483;-77
2023/06/05 01:20:07;;;;;;;4.40;1.90;;;24.30;40.90;;;;;;5005229;28;20424;-78
2023/06/05 01:22:37;;;;;;;2.40;1.87;;;24.30;41.00;;;;;;5002185;28;20428;-77
2023/06/05 01:25:09;;;;;;;25.07;16.27;;;24.30;41.00;;;;;;4997319;28;20517;-78
2023/06/05 01:27:42;;;;;;;26.40;17.93;;;24.20;40.90;;;;;;4998681;28;20444;-77
2023/06/05 01:30:14;;;;;;;24.63;18.03;;;24.20;41.00;;;;;;4997434;28;20458;-80
2023/06/05 01:32:44;;;;;;;27.23;19.63;;;24.20;41.10;;;;;;4997996;28;20514;-80
2023/06/05 01:35:16;;;;;;;31.33;22.60;;;24.10;41.10;;;;;;5009248;28;20480;-81
2023/06/05 01:37:48;;;;;;;30.20;21.53;;;24.10;41.10;;;;;;5018635;28;20451;-82
2023/06/05 01:40:18;;;;;;;33.30;23.87;;;24.10;41.10;;;;;;5017221;28;20420;-79
2023/06/05 01:42:47;;;;;;;25.33;20.00;;;24.10;41.20;;;;;;5017812;28;20407;-80
2023/06/05 01:45:15;;;;;;;31.00;21.03;;;24.10;41.20;;;;;;5018638;28;20485;-80
2023/06/05 01:47:45;;;;;;;31.50;21.30;;;24.00;41.10;;;;;;5005594;28;20512;-79
2023/06/05 01:50:13;;;;;;;29.60;21.63;;;24.10;41.20;;;;;;5007173;28;20410;-79
2023/06/05 01:52:42;;;;;;;30.30;22.63;;;24.00;41.20;;;;;;5008511;28;20448;-79
2023/06/05 01:55:14;;;;;;;29.43;22.40;;;24.00;41.30;;;;;;4994019;28;20448;-79
2023/06/05 01:57:44;;;;;;;32.00;22.00;;;23.90;41.20;;;;;;4997528;28;20452;-79
2023/06/05 02:00:15;;;;;;;28.60;20.63;;;23.90;41.20;;;;;;5005581;28;20475;-79
2023/06/05 02:02:45;;;;;;;25.77;19.33;;;23.90;41.30;;;;;;5008988;28;20427;-79
2023/06/05 02:05:14;;;;;;;28.70;21.03;;;23.90;41.30;;;;;;4990599;28;20473;-77
2023/06/05 02:07:47;;;;;;;25.97;19.17;;;23.90;41.30;;;;;;4994055;28;20428;-79
2023/06/05 02:10:15;;;;;;;26.40;18.33;;;23.90;41.20;;;;;;4993504;28;20508;-78
2023/06/05 02:12:45;;;;;;;23.80;17.80;;;23.80;41.30;;;;;;4997491;28;20446;-78
2023/06/05 02:15:14;;;;;;;22.30;16.87;;;23.80;41.30;;;;;;4992316;28;20469;-78
2023/06/05 02:17:44;;;;;;;22.57;17.40;;;23.80;41.40;;;;;;4992776;28;20459;-79
2023/06/05 02:20:13;;;;;;;23.10;16.97;;;23.80;41.50;;;;;;4995493;28;20478;-78
2023/06/05 02:22:41;;;;;;;22.17;17.23;;;23.80;41.60;;;;;;4989195;28;20572;-78
2023/06/05 02:25:10;;;;;;;21.77;16.43;;;23.70;41.40;;;;;;4998328;28;20469;-79
2023/06/05 02:27:38;;;;;;;20.90;16.03;;;23.70;41.50;;;;;;4996763;28;20504;-79
2023/06/05 02:30:09;;;;;;;19.67;15.13;;;23.70;41.70;;;;;;4997239;28;20456;-79
2023/06/05 02:32:41;;;;;;;23.73;15.63;;;23.70;42.20;;;;;;4989471;28;20447;-79
2023/06/05 02:35:10;;;;;;;18.53;14.50;;;23.60;41.60;;;;;;4994900;28;20492;-79
2023/06/05 02:37:43;;;;;;;22.20;15.00;;;23.60;41.60;;;;;;4995755;28;20812;-77
2023/06/05 02:40:12;;;;;;;18.90;14.60;;;23.50;41.50;;;;;;4996051;28;20500;-77
2023/06/05 02:42:41;;;;;;;22.40;14.93;;;23.50;41.70;;;;;;4994481;28;20477;-78
2023/06/05 02:45:10;;;;;;;19.20;13.57;;;23.50;41.60;;;;;;4993058;28;20469;-78
2023/06/05 02:47:39;;;;;;;17.57;13.57;;;23.50;41.70;;;;;;4993552;28;20487;-79
2023/06/05 02:50:08;;;;;;;18.03;12.40;;;23.50;41.70;;;;;;4993377;28;20542;-79
2023/06/05 02:52:38;;;;;;;17.50;12.00;;;23.50;41.80;;;;;;4992486;28;20445;-79
2023/06/05 02:55:07;;;;;;;15.40;11.97;;;23.50;41.70;;;;;;4987863;28;20469;-79
2023/06/05 02:57:41;;;;;;;15.40;12.20;;;23.50;41.80;;;;;;4993050;28;20445;-79
2023/06/05 03:00:15;;;;;;;15.50;12.47;;;23.40;41.80;;;;;;4993326;28;20453;-79
2023/06/05 03:02:48;;;;;;;16.10;12.17;;;23.40;41.70;;;;;;4992812;28;20482;-79
2023/06/05 03:05:24;;;;;;;17.30;12.40;;;23.40;41.80;;;;;;4993865;28;20476;-80
2023/06/05 03:07:54;;;;;;;12.83;10.67;;;23.30;41.80;;;;;;4996794;28;20506;-79
2023/06/05 03:10:22;;;;;;;12.70;10.93;;;23.30;41.70;;;;;;4995659;28;20504;-79
2023/06/05 03:12:51;;;;;;;13.67;10.80;;;23.30;42.00;;;;;;4990363;28;20473;-80
2023/06/05 03:15:20;;;;;;;13.07;10.10;;;23.30;41.90;;;;;;4982816;28;20496;-80
2023/06/05 03:17:48;;;;;;;11.50;9.43;;;23.30;42.00;;;;;;4994538;28;20449;-78
2023/06/05 03:20:19;;;;;;;13.43;9.70;;;23.30;41.90;;;;;;4991544;28;20852;-79
2023/06/05 03:22:47;;;;;;;14.00;10.60;;;23.30;41.90;;;;;;4979761;28;20480;-80
2023/06/05 03:25:15;;;;;;;11.97;9.30;;;23.30;41.80;;;;;;4992734;28;20553;-79
2023/06/05 03:27:43;;;;;;;12.00;9.40;;;23.20;41.90;;;;;;4991692;28;20516;-78
2023/06/05 03:30:16;;;;;;;13.37;9.90;;;23.20;41.90;;;;;;4991170;28;20544;-79
2023/06/05 03:32:46;;;;;;;11.13;8.50;;;23.20;42.00;;;;;;4988198;28;20469;-79
2023/06/05 03:35:14;;;;;;;11.60;8.50;;;23.20;42.00;;;;;;4983473;28;20481;-78
2023/06/05 03:37:42;;;;;;;9.60;8.30;;;23.20;42.00;;;;;;4987698;28;20431;-78
2023/06/05 03:40:13;;;;;;;9.40;8.33;;;23.20;42.00;;;;;;4997352;28;20499;-79
2023/06/05 03:42:41;;;;;;;10.57;8.27;;;23.10;41.90;;;;;;4985665;28;20469;-79
2023/06/05 03:45:10;;;;;;;9.97;8.23;;;23.10;42.00;;;;;;4984567;28;20525;-79
2023/06/05 03:47:38;;;;;;;11.20;8.63;;;23.10;42.00;;;;;;4995154;28;20520;-79
2023/06/05 03:50:09;;;;;;;9.57;7.63;;;23.10;42.10;;;;;;4989544;28;20473;-78
2023/06/05 03:52:37;;;;;;;10.60;7.30;;;23.10;42.10;;;;;;4987532;28;20879;-80
2023/06/05 03:55:07;;;;;;;9.03;8.00;;;23.10;42.00;;;;;;4997673;28;20495;-79
2023/06/05 03:57:37;;;;;;;7.87;7.07;;;23.10;42.20;;;;;;4980777;28;20451;-79
2023/06/05 04:00:09;;;;;;;11.13;7.47;;;23.10;42.10;;;;;;4990661;28;20946;-79
2023/06/05 04:02:38;;;;;;;7.60;6.80;;;23.10;42.00;;;;;;4988722;28;20480;-80
2023/06/05 04:05:11;;;;;;;8.13;7.03;;;23.10;42.10;;;;;;4991241;28;20476;-79
2023/06/05 04:07:40;;;;;;;7.63;6.60;;;23.10;42.00;;;;;;4998825;28;20427;-80
2023/06/05 04:10:08;;;;;;;9.57;6.87;;;23.10;42.30;;;;;;4991908;28;20849;-79
2023/06/05 04:12:37;;;;;;;8.87;6.30;;;23.10;42.20;;;;;;4998796;28;20507;-79
2023/06/05 04:15:06;;;;;;;7.07;6.03;;;23.00;42.30;;;;;;4999309;28;20528;-78
2023/06/05 04:17:37;;;;;;;6.40;5.77;;;23.10;42.30;;;;;;4998878;28;20428;-79
2023/06/05 04:20:10;;;;;;;7.00;6.30;;;23.10;42.00;;;;;;4997713;28;20540;-79
2023/06/05 04:22:39;;;;;;;6.40;5.80;;;23.10;42.10;;;;;;4995936;28;20473;-79
2023/06/05 04:25:08;;;;;;;6.43;5.83;;;23.10;42.30;;;;;;5001873;28;20453;-81
2023/06/05 04:27:36;;;;;;;7.83;5.93;;;23.10;42.20;;;;;;4989021;28;20472;-81
2023/06/05 04:30:05;;;;;;;6.13;5.53;;;23.10;42.30;;;;;;5006172;28;20449;-82
2023/06/05 04:32:34;;;;;;;6.50;5.80;;;23.10;42.10;;;;;;4995959;28;20454;-83
2023/06/05 04:35:02;;;;;;;7.50;6.10;;;23.10;42.30;;;;;;4996622;28;20481;-82
2023/06/05 04:37:30;;;;;;;5.50;5.00;;;23.10;42.30;;;;;;4997931;28;20468;-83
2023/06/05 04:40:00;;;;;;;9.93;5.50;;;23.00;42.30;;;;;;5004391;28;20453;-81
2023/06/05 04:42:29;;;;;;;6.37;5.77;;;23.00;42.10;;;;;;5004435;28;20477;-82
2023/06/05 04:44:58;;;;;;;5.80;5.27;;;23.00;42.20;;;;;;5002472;28;20445;-81
2023/06/05 04:47:26;;;;;;;4.63;4.23;;;23.10;42.40;;;;;;4996114;28;20472;-81
2023/06/05 04:49:54;;;;;;;5.17;4.73;;;23.00;42.20;;;;;;5003117;28;20476;-82
2023/06/05 04:52:23;;;;;;;5.37;4.90;;;23.10;42.10;;;;;;5001730;28;20443;-82
2023/06/05 04:54:51;;;;;;;6.50;4.50;;;23.00;42.30;;;;;;5006207;28;20481;-82
2023/06/05 04:57:20;;;;;;;5.40;4.60;;;23.10;42.30;;;;;;5004355;28;20432;-81
2023/06/05 04:59:50;;;;;;;5.60;4.50;;;23.10;42.40;;;;;;5004884;28;20465;-81
2023/06/05 05:02:18;;;;;;;4.60;4.20;;;23.10;42.30;;;;;;4996939;28;20499;-81
2023/06/05 05:04:47;;;;;;;5.80;4.60;;;23.10;42.40;;;;;;5003027;28;20544;-79
2023/06/05 05:07:16;;;;;;;6.27;4.70;;;23.10;42.10;;;;;;5002305;28;20451;-80
2023/06/05 05:09:45;;;;;;;5.90;4.53;;;23.10;42.10;;;;;;5003355;28;20420;-81
2023/06/05 05:12:13;;;;;;;5.03;4.53;;;23.10;42.40;;;;;;5002910;28;20518;-81
2023/06/05 05:14:44;;;;;;;4.60;4.20;;;23.10;42.30;;;;;;5000011;28;20453;-81
2023/06/05 05:17:14;;;;;;;5.00;4.40;;;23.10;42.20;;;;;;5002826;28;20424;-81
2023/06/05 05:19:42;;;;;;;5.80;4.20;;;23.10;42.30;;;;;;4998641;28;20464;-82
2023/06/05 05:22:10;;;;;;;4.80;4.40;;;23.10;42.30;;;;;;5004246;28;20441;-81
2023/06/05 05:24:39;;;;;;;4.77;4.27;;;23.10;42.00;;;;;;5001766;28;20452;-82
2023/06/05 05:27:08;;;;;;;4.50;4.10;;;23.10;42.10;;;;;;5001025;28;20457;-82
2023/06/05 05:29:35;;;;;;;4.40;3.97;;;23.10;42.20;;;;;;4998584;28;20460;-82
2023/06/05 05:32:05;;;;;;;4.07;3.77;;;23.10;42.20;;;;;;4998929;28;20445;-82
2023/06/05 05:34:34;;;;;;;4.53;3.80;;;23.10;42.20;;;;;;4998791;28;20946;-82
2023/06/05 05:37:03;;;;;;;4.40;3.70;;;23.10;42.20;;;;;;4987787;28;20473;-81
2023/06/05 05:39:31;;;;;;;3.90;3.60;;;23.20;42.20;;;;;;4996623;28;20449;-80
2023/06/05 05:42:00;;;;;;;3.53;3.23;;;23.20;42.20;;;;;;4989994;28;20445;-80
2023/06/05 05:44:28;;;;;;;4.70;4.23;;;23.30;42.30;;;;;;4982186;28;20478;-81
2023/06/05 05:46:56;;;;;;;4.10;3.80;;;23.30;42.20;;;;;;4988273;28;20490;-80
2023/06/05 05:49:26;;;;;;;4.07;3.77;;;23.30;42.10;;;;;;4998124;28;20449;-80
2023/06/05 05:51:54;;;;;;;3.40;3.10;;;23.30;42.20;;;;;;4996735;28;20473;-80
2023/06/05 05:54:26;;;;;;;3.53;3.33;;;23.30;42.20;;;;;;5000830;28;20474;-81
2023/06/05 05:56:54;;;;;;;3.50;3.30;;;23.30;42.30;;;;;;5000758;28;20485;-80
2023/06/05 05:59:23;;;;;;;3.83;3.53;;;23.40;42.20;;;;;;4995901;28;20472;-80
2023/06/05 06:01:51;;;;;;;3.47;3.27;;;23.40;42.20;;;;;;5001062;28;20474;-81
2023/06/05 06:04:19;;;;;;;3.60;3.30;;;23.40;42.00;;;;;;4998423;28;20993;-81
2023/06/05 06:06:52;;;;;;;2.90;2.70;;;23.40;42.30;;;;;;4997899;28;20477;-81
2023/06/05 06:09:20;;;;;;;2.97;2.87;;;23.40;42.20;;;;;;5000845;28;20445;-81
2023/06/05 06:11:48;;;;;;;3.43;3.13;;;23.40;42.20;;;;;;5003826;28;20493;-81
2023/06/05 06:14:16;;;;;;;3.50;3.30;;;23.40;42.20;;;;;;5004716;28;20468;-81
2023/06/05 06:16:44;;;;;;;3.40;3.20;;;23.40;42.20;;;;;;4988022;28;20441;-81
2023/06/05 06:19:16;;;;;;;3.80;3.37;;;23.40;42.10;;;;;;4983725;28;20478;-82
2023/06/05 06:21:44;;;;;;;3.17;2.90;;;23.40;42.10;;;;;;5001689;28;20454;-81
2023/06/05 06:24:15;;;;;;;3.63;3.17;;;23.50;42.20;;;;;;4994995;28;20469;-81
2023/06/05 06:26:44;;;;;;;3.40;3.20;;;23.50;42.20;;;;;;4990082;28;20448;-81
2023/06/05 06:29:12;;;;;;;3.07;2.87;;;23.50;42.30;;;;;;4983428;28;20458;-80
2023/06/05 06:31:40;;;;;;;2.87;2.63;;;23.50;42.00;;;;;;4982796;28;20937;-81
2023/06/05 06:34:10;;;;;;;3.03;2.83;;;23.60;42.70;;;;;;4991078;28;20493;-81
2023/06/05 06:36:40;;;;;;;2.67;2.57;;;23.70;42.10;;;;;;4991723;28;20484;-81
2023/06/05 06:39:08;;;;;;;3.40;3.00;;;23.70;42.10;;;;;;4992545;28;20473;-81
2023/06/05 06:41:38;;;;;;;4.77;3.10;;;23.80;42.20;;;;;;5002695;28;20480;-82
2023/06/05 06:44:06;;;;;;;2.77;2.60;;;23.80;42.10;;;;;;4985188;28;20468;-80
2023/06/05 06:46:35;;;;;;;2.77;2.57;;;23.80;42.00;;;;;;4995054;28;20540;-81
2023/06/05 06:49:03;;;;;;;2.90;2.70;;;23.90;41.90;;;;;;5005018;28;20444;-81
2023/06/05 06:51:32;;;;;;;3.47;3.17;;;24.00;41.90;;;;;;4995790;28;20458;-81
2023/06/05 06:54:00;;;;;;;2.60;2.50;;;24.00;41.90;;;;;;4997804;28;20553;-80
2023/06/05 06:56:28;;;;;;;2.83;2.73;;;24.00;41.90;;;;;;4993825;28;20509;-81
2023/06/05 06:58:58;;;;;;;2.87;2.67;;;24.10;41.80;;;;;;5001799;28;20420;-80
2023/06/05 07:01:26;;;;;;;3.43;3.07;;;24.10;41.80;;;;;;4987321;28;20477;-80
2023/06/05 07:03:54;;;;;;;2.60;2.50;;;24.10;41.80;;;;;;4982062;28;20469;-81
2023/06/05 07:06:22;;;;;;;2.90;2.70;;;24.20;41.80;;;;;;4994531;28;20478;-81
2023/06/05 07:08:51;;;;;;;2.80;2.70;;;24.20;41.80;;;;;;5001158;28;20435;-81
2023/06/05 07:11:19;;;;;;;2.83;2.63;;;24.30;41.90;;;;;;4995807;28;20511;-80
2023/06/05 07:13:48;;;;;;;2.53;2.43;;;24.30;41.80;;;;;;4996310;28;20428;-80
2023/06/05 07:16:18;;;;;;;2.53;2.43;;;24.30;41.70;;;;;;4998012;28;20474;-80
2023/06/05 07:18:46;;;;;;;2.70;2.50;;;24.40;41.80;;;;;;4989839;28;20444;-80
2023/06/05 07:21:14;;;;;;;2.40;2.30;;;24.40;41.70;;;;;;4990980;28;20457;-80
2023/06/05 07:23:44;;;;;;;2.63;2.53;;;24.50;41.90;;;;;;4983272;28;20469;-80
2023/06/05 07:26:12;;;;;;;2.57;2.37;;;24.60;41.80;;;;;;4981836;28;20461;-81
2023/06/05 07:28:40;;;;;;;3.63;2.60;;;24.60;41.70;;;;;;4991534;28;20432;-80
2023/06/05 07:31:08;;;;;;;2.70;2.50;;;24.70;41.70;;;;;;4996883;28;20795;-78
2023/06/05 07:33:38;;;;;;;2.67;2.50;;;24.80;41.60;;;;;;4992618;28;20495;-80
2023/06/05 07:36:07;;;;;;;2.30;2.20;;;24.80;41.60;;;;;;4999926;28;20469;-81
2023/06/05 07:38:35;;;;;;;2.27;2.17;;;24.90;41.60;;;;;;4991921;28;20442;-81
2023/06/05 07:41:03;;;;;;;3.00;2.57;;;25.10;41.70;;;;;;4989027;28;20474;-80
2023/06/05 07:43:31;;;;;;;2.73;2.63;;;25.20;41.50;;;;;;4994807;28;20411;-80
2023/06/05 07:45:59;;;;;;;2.33;2.23;;;25.20;41.30;;;;;;4996554;28;20445;-80
2023/06/05 07:48:27;;;;;;;2.20;2.10;;;25.30;41.20;;;;;;4994356;28;20469;-82
2023/06/05 07:50:56;;;;;;;4.03;2.30;;;25.40;41.20;;;;;;4998711;28;20457;-79
2023/06/05 07:53:25;;;;;;;2.70;2.50;;;25.40;41.30;;;;;;4999696;28;20492;-80
2023/06/05 07:55:53;;;;;;;5.83;2.20;;;25.50;41.10;;;;;;4999786;28;20440;-80
2023/06/05 07:58:22;;;;;;;4.80;2.40;;;25.50;41.10;;;;;;4999228;28;20433;-80
2023/06/05 08:00:51;;;;;;;2.37;2.27;;;25.60;41.30;;;;;;4990018;28;20453;-80
2023/06/05 08:03:20;;;;;;;2.80;2.60;;;25.80;41.30;;;;;;4995024;28;20436;-79
2023/06/05 08:05:49;;;;;;;2.40;2.30;;;25.90;41.00;;;;;;4998894;28;20480;-80
2023/06/05 08:08:19;;;;;;;2.30;2.20;;;26.10;40.90;;;;;;4996547;28;20432;-81
2023/06/05 08:10:47;;;;;;;2.00;1.90;;;26.30;40.80;;;;;;4999197;28;20488;-81
2023/06/05 08:13:16;;;;;;;2.10;2.00;;;26.40;40.60;;;;;;4992638;28;20448;-80
2023/06/05 08:15:44;;;;;;;2.40;2.30;;;26.60;40.50;;;;;;5000462;28;20989;-80
2023/06/05 08:18:12;;;;;;;2.60;2.50;;;26.70;40.30;;;;;;5001887;28;20435;-80
2023/06/05 08:20:40;;;;;;;2.20;2.10;;;26.80;40.30;;;;;;5004149;28;20975;-80
2023/06/05 08:23:08;;;;;;;2.00;1.90;;;27.00;40.30;;;;;;4999707;28;20515;-81
2023/06/05 08:25:38;;;;;;;3.67;2.10;;;27.10;40.00;;;;;;4999702;28;20476;-81
2023/06/05 08:28:06;;;;;;;2.30;2.20;;;27.30;40.00;;;;;;5000365;28;20445;-80
2023/06/05 08:30:34;;;;;;;2.40;2.30;;;27.50;39.90;;;;;;4999073;28;20442;-80
2023/06/05 08:33:03;;;;;;;2.40;2.30;;;27.60;39.80;;;;;;4992068;28;20445;-80
2023/06/05 08:35:31;;;;;;;2.13;2.00;;;27.80;39.70;;;;;;4999673;28;20446;-81
2023/06/05 08:37:59;;;;;;;2.27;2.17;;;28.00;39.50;;;;;;4998249;28;20469;-81
2023/06/05 08:40:29;;;;;;;2.50;2.30;;;28.10;39.40;;;;;;4999874;28;20483;-81
2023/06/05 08:42:58;;;;;;;2.40;2.30;;;28.20;39.20;;;;;;4998324;28;20416;-81
2023/06/05 08:45:26;;;;;;;2.43;2.23;;;28.40;39.20;;;;;;4998207;28;20530;-81
2023/06/05 08:47:55;;;;;;;2.00;1.90;;;28.50;39.10;;;;;;5000375;28;20472;-82
2023/06/05 08:50:24;;;;;;;2.00;1.90;;;28.70;39.00;;;;;;5000071;28;20441;-81
2023/06/05 08:52:52;;;;;;;2.37;2.27;;;28.90;38.80;;;;;;5001249;28;20423;-82
2023/06/05 08:55:21;;;;;;;2.00;1.90;;;29.00;38.70;;;;;;4994300;28;20540;-81
2023/06/05 08:57:49;;;;;;;3.30;2.33;;;29.20;38.60;;;;;;4998323;28;20420;-81
2023/06/05 09:00:20;;;;;;;2.13;2.03;;;29.30;38.50;;;;;;5000794;28;20420;-81
2023/06/05 09:02:48;;;;;;;2.10;2.00;;;29.50;38.30;;;;;;5000831;28;20431;-81
2023/06/05 09:05:17;;;;;;;2.27;2.17;;;29.70;38.20;;;;;;4994991;28;20487;-82
2023/06/05 09:07:45;;;;;;;2.77;2.30;;;29.80;38.00;;;;;;5009372;28;20420;-82
2023/06/05 09:10:23;;;;;;;1.93;1.83;;;30.00;37.90;;;;;;5004308;28;20513;-83
2023/06/05 09:12:55;;;;;;;1.80;1.70;;;30.20;37.90;;;;;;5002636;28;20432;-82
2023/06/05 09:15:25;;;;;;;2.00;1.90;;;30.30;37.60;;;;;;5001526;28;20573;-82
2023/06/05 09:18:08;;;;;;;2.93;1.87;;;30.50;37.60;;;;;;5008469;28;20449;-82
2023/06/05 09:20:37;;;;;;;1.97;1.87;;;30.60;37.40;;;;;;5004569;28;20449;-82
2023/06/05 09:23:21;;;;;;;2.00;1.90;;;30.80;37.40;;;;;;5007931;28;20520;-82
2023/06/05 09:25:53;;;;;;;1.93;1.83;;;31.00;37.10;;;;;;5006349;28;20484;-82
2023/06/05 09:28:21;;;;;;;2.10;2.00;;;31.10;37.00;;;;;;5001217;28;20447;-82
2023/06/05 09:31:00;;;;;;;2.07;1.97;;;31.30;36.90;;;;;;5003335;28;20465;-82
2023/06/05 09:33:30;;;;;;;1.70;1.70;;;31.40;36.80;;;;;;4998174;28;20499;-82
2023/06/05 09:36:09;;;;;;;2.00;1.90;;;31.60;36.70;;;;;;4989358;28;20470;-82
2023/06/05 09:38:38;;;;;;;2.20;2.10;;;31.80;36.60;;;;;;4993758;28;20449;-82
2023/06/05 09:41:06;;;;;;;1.73;1.73;;;31.90;36.40;;;;;;4995294;28;20465;-82
2023/06/05 09:43:35;;;;;;;1.57;1.47;;;32.10;36.30;;;;;;4993983;28;20570;-82
2023/06/05 09:46:09;;;;;;;1.90;1.90;;;32.20;36.10;;;;;;4992964;28;20502;-81
2023/06/05 09:48:38;;;;;;;2.00;1.90;;;32.40;35.90;;;;;;4993643;28;20456;-80
2023/06/05 09:51:11;;;;;;;2.00;1.90;;;32.60;35.80;;;;;;4999082;28;20453;-81
2023/06/05 09:53:43;;;;;;;1.97;1.97;;;32.80;35.70;;;;;;5000307;28;20950;-82
2023/06/05 09:56:12;;;;;;;1.90;1.80;;;32.90;35.50;;;;;;4999496;28;20461;-82
2023/06/05 09:58:43;;;;;;;2.03;1.90;;;33.10;35.40;;;;;;5001970;28;20472;-81
2023/06/05 10:01:14;;;;;;;1.90;1.80;;;33.20;35.20;;;;;;5000384;28;20459;-81
2023/06/05 10:03:43;;;;;;;1.83;1.80;;;33.30;35.10;;;;;;5000402;28;20587;-80
2023/06/05 10:06:12;;;;;;;1.60;1.60;;;33.50;35.00;;;;;;5000488;28;20484;-81
2023/06/05 10:08:43;;;;;;;1.80;1.70;;;33.70;34.90;;;;;;4997997;28;20487;-82
2023/06/05 10:11:11;;;;;;;2.00;1.90;;;33.80;34.80;;;;;;5000882;28;20520;-82
2023/06/05 10:13:39;;;;;;;1.70;1.60;;;34.00;34.50;;;;;;4999180;28;20476;-81
2023/06/05 10:16:07;;;;;;;1.80;1.70;;;34.20;34.40;;;;;;5000047;28;20503;-82
2023/06/05 10:18:50;;;;;;;1.50;1.50;;;34.40;34.20;;;;;;4993350;28;20445;-81
2023/06/05 10:21:18;;;;;;;1.60;1.60;;;34.50;34.00;;;;;;4994031;28;20453;-82
2023/06/05 10:23:49;;;;;;;1.60;1.50;;;34.70;33.80;;;;;;4995656;28;20473;-80
2023/06/05 10:26:23;;;;;;;1.77;1.67;;;34.90;33.70;;;;;;4993837;28;20473;-82
2023/06/05 10:28:55;;;;;;;1.70;1.60;;;35.00;33.50;;;;;;4991805;28;20480;-80
2023/06/05 10:31:29;;;;;;;1.80;1.70;;;35.10;33.20;;;;;;4989151;28;20453;-84
2023/06/05 10:34:07;;;;;;;1.80;1.70;;;35.20;33.20;;;;;;4995704;28;20451;-82
2023/06/05 10:36:48;;;;;;;1.70;1.63;;;35.30;33.10;;;;;;4984059;28;20540;-81
2023/06/05 10:39:18;;;;;;;1.60;1.50;;;35.50;33.10;;;;;;4991655;28;20449;-81
2023/06/05 10:41:46;;;;;;;2.40;1.63;;;35.70;32.90;;;;;;4993821;28;20451;-80
2023/06/05 10:44:15;;;;;;;1.63;1.63;;;35.80;32.40;;;;;;4994769;28;20438;-81
2023/06/05 10:46:43;;;;;;;1.80;1.80;;;36.00;32.40;;;;;;4995784;28;20503;-82
2023/06/05 10:49:15;;;;;;;1.33;1.30;;;36.20;32.40;;;;;;4995086;28;20455;-81
2023/06/05 10:51:44;;;;;;;1.57;1.57;;;36.30;32.20;;;;;;4995521;28;20445;-81
2023/06/05 10:54:15;;;;;;;1.50;1.50;;;36.50;32.00;;;;;;4994142;28;20467;-81
2023/06/05 10:57:03;;;;;;;1.40;1.30;;;36.70;31.90;;;;;;4993789;28;20468;-81
2023/06/05 10:59:32;;;;;;;1.83;1.73;;;36.90;31.70;;;;;;4990696;28;20454;-82
2023/06/05 11:02:28;;;;;;;1.87;1.77;;;37.00;31.50;;;;;;4993372;28;20451;-81
2023/06/05 11:05:12;;;;;;;1.73;1.63;;;37.10;31.30;;;;;;4995182;28;20484;-81
2023/06/05 11:07:42;;;;;;;1.70;1.60;;;37.30;31.10;;;;;;4993395;28;20445;-81
2023/06/05 11:10:17;;;;;;;1.40;1.40;;;37.50;30.90;;;;;;4993390;28;20453;-80
2023/06/05 11:12:56;;;;;;;1.63;1.63;;;37.60;30.80;;;;;;4989345;28;20461;-81
2023/06/05 11:15:46;;;;;;;2.97;1.60;;;37.80;30.60;;;;;;4986442;28;20476;-81
2023/06/05 11:18:33;;;;;;;2.20;1.50;;;38.30;30.30;;;;;;4992043;28;20516;-81
2023/06/05 11:21:03;;;;;;;1.43;1.43;;;39.30;29.50;;;;;;4995237;28;20461;-82
2023/06/05 11:23:31;;;;;;;1.40;1.30;;;40.10;28.70;;;;;;4995375;28;20449;-82
2023/06/05 11:26:33;;;;;;;1.40;1.27;;;40.70;28.10;;;;;;4997931;28;20481;-80
2023/06/05 11:29:01;;;;;;;1.33;1.33;;;41.40;27.50;;;;;;4993106;28;20512;-80
2023/06/05 11:31:32;;;;;;;3.57;1.20;;;42.00;26.80;;;;;;4992162;28;20511;-80
2023/06/05 11:34:00;;;;;;;1.10;1.10;;;42.40;26.60;;;;;;4993777;28;20437;-81
2023/06/05 11:36:30;;;;;;;1.10;1.10;;;43.00;26.20;;;;;;4991844;28;20465;-81
2023/06/05 11:38:58;;;;;;;1.07;1.07;;;43.40;25.70;;;;;;4992503;28;20507;-80
2023/06/05 11:41:27;;;;;;;1.00;1.00;;;44.00;25.30;;;;;;4986534;28;20928;-81
2023/06/05 11:43:56;;;;;;;1.33;1.23;;;44.50;24.80;;;;;;4993690;28;20448;-81
2023/06/05 11:46:37;;;;;;;0.97;0.97;;;44.90;24.60;;;;;;4988339;28;20476;-81
2023/06/05 11:49:05;;;;;;;1.27;1.07;;;45.00;24.20;;;;;;4990401;28;20540;-81
2023/06/05 11:51:35;;;;;;;1.30;1.30;;;45.40;24.30;;;;;;4991370;28;20449;-81
2023/06/05 11:54:05;;;;;;;1.00;1.00;;;45.70;23.90;;;;;;4994283;28;20453;-82
2023/06/05 11:56:32;;;;;;;1.30;1.30;;;45.80;23.80;;;;;;4996015;28;20457;-82
2023/06/05 11:59:00;;;;;;;1.23;1.00;;;45.80;23.90;;;;;;4996597;28;20480;-82
2023/06/05 12:01:31;;;;;;;1.13;1.03;;;45.90;24.00;;;;;;4996906;28;20893;-81
2023/06/05 12:04:08;;;;;;;2.43;1.20;;;45.90;24.00;;;;;;4997678;28;20502;-81
2023/06/05 12:06:42;;;;;;;1.10;1.10;;;45.50;24.20;;;;;;4991006;28;20478;-82
2023/06/05 12:09:11;;;;;;;1.20;1.10;;;45.50;24.00;;;;;;4996164;28;20551;-80
2023/06/05 12:11:40;;;;;;;1.07;1.07;;;45.20;24.30;;;;;;4996067;28;20464;-81
2023/06/05 12:14:08;;;;;;;3.00;1.17;;;44.90;24.50;;;;;;4997263;28;20448;-81
2023/06/05 12:16:36;;;;;;;1.40;1.27;;;44.80;24.70;;;;;;4994284;28;20468;-81
2023/06/05 12:19:11;;;;;;;1.03;1.00;;;44.50;24.50;;;;;;4997797;28;20811;-82
2023/06/05 12:21:44;;;;;;;1.17;1.10;;;44.30;24.70;;;;;;4992139;28;20480;-81
2023/06/05 12:24:12;;;;;;;2.73;1.20;;;44.10;24.90;;;;;;4992300;28;20543;-81
2023/06/05 12:26:53;;;;;;;1.10;1.00;;;44.10;25.10;;;;;;4998188;28;20488;-81
2023/06/05 12:29:23;;;;;;;1.07;1.07;;;43.90;25.10;;;;;;4997234;28;20477;-82
2023/06/05 12:31:52;;;;;;;1.33;1.23;;;43.90;25.20;;;;;;4996899;28;20453;-81
2023/06/05 12:34:39;;;;;;;1.27;1.03;;;43.70;25.50;;;;;;4997529;28;20540;-80
2023/06/05 12:37:29;;;;;;;1.43;1.43;;;43.30;25.70;;;;;;4992310;28;20495;-81
2023/06/05 12:39:58;;;;;;;1.43;1.30;;;43.00;26.00;;;;;;4995047;28;20589;-81
2023/06/05 12:42:26;;;;;;;1.70;1.30;;;42.80;26.00;;;;;;4997578;28;20476;-81
2023/06/05 12:44:54;;;;;;;1.40;1.30;;;42.70;26.10;;;;;;4998001;28;20448;-82
2023/06/05 12:47:22;;;;;;;1.70;1.60;;;42.40;26.30;;;;;;4993776;28;20928;-82
2023/06/05 12:49:51;;;;;;;1.30;1.20;;;42.30;26.70;;;;;;4997832;28;20453;-82
2023/06/05 12:52:25;;;;;;;1.57;1.20;;;42.10;26.60;;;;;;4997709;28;20544;-82
2023/06/05 12:54:55;;;;;;;1.53;1.30;;;41.90;26.70;;;;;;4991579;28;20485;-81
2023/06/05 12:57:23;;;;;;;1.30;1.30;;;41.80;26.90;;;;;;4996754;28;20445;-81